Time;durP1;ratioP1;P1;durP2;ratioP2;P2;SDS_P1;SDS_P2;PMS_P1;PMS_P2;Temp;Humidity;BMP_temperature;BMP_pressure;BME280_temperature;BME280_humidity;BME280_pressure;Samples;Min_cycle;Max_cycle;Signal;HPM_P1;HPM_P2
2022/09/28 00:02:12;;;;;;;1.50;1.30;;;;;;;8.79;100.00;94995.06;5010932;28;101877;-66
2022/09/28 00:04:40;;;;;;;1.37;1.27;;;;;;;8.75;100.00;95009.16;5012320;28;101996;-66
2022/09/28 00:07:08;;;;;;;1.90;1.80;;;;;;;8.82;100.00;94991.09;5013550;28;105675;-66
2022/09/28 00:09:35;;;;;;;1.50;1.20;;;;;;;8.72;100.00;94996.47;5010778;28;104029;-66
2022/09/28 00:12:02;;;;;;;1.23;1.20;;;;;;;8.78;100.00;94982.88;5009856;28;104068;-66
2022/09/28 00:14:31;;;;;;;2.07;1.37;;;;;;;8.85;100.00;94977.31;5011201;28;101998;-66
2022/09/28 00:16:58;;;;;;;2.20;1.23;;;;;;;8.83;100.00;94972.25;5010432;28;105361;-66
2022/09/28 00:19:25;;;;;;;1.77;1.67;;;;;;;8.83;100.00;94977.56;5010133;28;105407;-66
2022/09/28 00:21:52;;;;;;;2.53;2.00;;;;;;;8.79;100.00;94975.75;4993812;28;101842;-66
2022/09/28 00:24:21;;;;;;;4.30;2.30;;;;;;;8.76;100.00;94963.84;5010339;28;104833;-66
2022/09/28 00:26:51;;;;;;;2.43;2.23;;;;;;;8.83;100.00;94958.25;5009639;28;104933;-66
2022/09/28 00:29:21;;;;;;;2.30;2.10;;;;;;;8.83;100.00;94940.47;5013828;28;102034;-66
2022/09/28 00:31:51;;;;;;;2.00;1.67;;;;;;;8.88;100.00;94942.31;5011286;28;103094;-66
2022/09/28 00:34:18;;;;;;;1.50;1.40;;;;;;;8.85;100.00;94941.00;5010528;28;101904;-66
2022/09/28 00:36:48;;;;;;;1.70;1.20;;;;;;;8.83;100.00;94935.16;5010015;28;104902;-66
2022/09/28 00:39:16;;;;;;;1.00;1.00;;;;;;;8.64;100.00;94944.00;5009515;28;104105;-66
2022/09/28 00:41:46;;;;;;;0.90;0.90;;;;;;;8.74;100.00;94942.13;5010193;28;102053;-66
2022/09/28 00:44:37;;;;;;;1.10;1.10;;;;;;;8.81;100.00;94932.00;5010178;28;105206;-66
2022/09/28 00:47:16;;;;;;;1.43;1.00;;;;;;;8.75;100.00;94934.94;5009668;28;105608;-66
2022/09/28 00:49:45;;;;;;;1.17;0.90;;;;;;;8.71;100.00;94931.25;5009995;28;102126;-66
2022/09/28 00:52:18;;;;;;;1.20;1.07;;;;;;;8.77;100.00;94924.88;5012773;28;105776;-66
2022/09/28 00:54:47;;;;;;;0.90;0.90;;;;;;;8.79;100.00;94926.16;5009337;28;101771;-66
2022/09/28 00:57:18;;;;;;;0.83;0.80;;;;;;;8.72;100.00;94924.91;5009547;28;105230;-66
2022/09/28 00:59:44;;;;;;;1.53;1.20;;;;;;;8.66;100.00;94915.38;5009446;28;105609;-66
2022/09/28 01:02:11;;;;;;;1.67;1.00;;;;;;;8.69;100.00;94907.69;5010047;28;101834;-66
2022/09/28 01:04:39;;;;;;;3.53;1.10;;;;;;;8.75;100.00;94898.66;5009908;28;105002;-66
2022/09/28 01:07:09;;;;;;;1.37;1.10;;;;;;;8.78;100.00;94889.34;5009128;28;103750;-66
2022/09/28 01:09:39;;;;;;;0.93;0.93;;;;;;;8.72;100.00;94888.59;5009750;28;101954;-66
2022/09/28 01:12:07;;;;;;;1.20;1.10;;;;;;;8.70;100.00;94890.72;5009775;28;105145;-66
2022/09/28 01:14:36;;;;;;;0.90;0.80;;;;;;;8.59;100.00;94891.03;5012620;28;104507;-66
2022/09/28 01:17:13;;;;;;;1.20;0.90;;;;;;;8.68;100.00;94870.88;5009405;28;104998;-66
2022/09/28 01:20:03;;;;;;;1.20;1.10;;;;;;;8.73;100.00;94857.59;5009124;28;105451;-66
2022/09/28 01:22:48;;;;;;;1.60;1.00;;;;;;;8.69;100.00;94844.09;5009566;28;102027;-66
2022/09/28 01:25:25;;;;;;;1.27;1.00;;;;;;;8.68;100.00;94853.09;5009601;28;104196;-66
2022/09/28 01:27:57;;;;;;;0.90;0.90;;;;;;;8.55;100.00;94850.25;5009586;28;102556;-66
2022/09/28 01:30:25;;;;;;;1.23;1.00;;;;;;;8.59;100.00;94851.31;5009250;28;101949;-66
2022/09/28 01:32:59;;;;;;;1.20;1.10;;;;;;;8.64;100.00;94853.94;4992921;28;105679;-66
2022/09/28 01:35:32;;;;;;;1.73;1.00;;;;;;;8.65;100.00;94855.50;5008447;28;104058;-66
2022/09/28 01:38:04;;;;;;;1.20;1.10;;;;;;;8.68;100.00;94855.75;5012822;28;101964;-66
2022/09/28 01:40:34;;;;;;;0.87;0.87;;;;;;;8.64;100.00;94859.22;5008515;28;105176;-66
2022/09/28 01:43:06;;;;;;;1.33;1.23;;;;;;;8.64;100.00;94853.94;5009261;28;101946;-66
2022/09/28 01:45:38;;;;;;;1.23;1.00;;;;;;;8.67;100.00;94845.44;5009534;28;104997;-66
2022/09/28 01:48:08;;;;;;;1.50;1.07;;;;;;;8.65;100.00;94840.41;5008533;28;103982;-66
2022/09/28 01:50:41;;;;;;;1.20;1.20;;;;;;;8.59;100.00;94846.81;5009188;28;101778;-66
2022/09/28 01:53:16;;;;;;;2.50;1.30;;;;;;;8.54;100.00;94835.44;5009191;28;105604;-66
2022/09/28 01:55:48;;;;;;;1.67;0.97;;;;;;;8.62;100.00;94825.06;5007668;28;104024;-66
2022/09/28 01:58:24;;;;;;;1.20;1.10;;;;;;;8.50;100.00;94826.47;5012580;28;101815;-66
2022/09/28 02:00:56;;;;;;;1.50;1.40;;;;;;;8.58;100.00;94817.94;5008577;28;103863;-66
2022/09/28 02:03:29;;;;;;;1.20;1.10;;;;;;;8.56;100.00;94817.44;5009136;28;101762;-66
2022/09/28 02:06:11;;;;;;;1.23;1.13;;;;;;;8.60;100.00;94821.09;5008785;28;104808;-66
2022/09/28 02:08:44;;;;;;;1.10;1.10;;;;;;;8.63;100.00;94809.97;5008207;28;105994;-66
2022/09/28 02:11:15;;;;;;;1.40;1.30;;;;;;;8.61;100.00;94802.28;5008840;28;101892;-66
2022/09/28 02:13:49;;;;;;;1.10;1.10;;;;;;;8.63;100.00;94799.34;5008902;28;104786;-66
2022/09/28 02:16:22;;;;;;;1.27;1.20;;;;;;;8.64;100.00;94801.75;5008013;28;104104;-66
2022/09/28 02:18:50;;;;;;;1.73;1.43;;;;;;;8.64;100.00;94800.94;5008941;28;101811;-66
2022/09/28 02:21:26;;;;;;;1.70;1.60;;;;;;;8.58;100.00;94783.50;5011811;28;105097;-66
2022/09/28 02:23:58;;;;;;;1.70;1.60;;;;;;;8.61;100.00;94775.00;5008802;28;101926;-66
2022/09/28 02:26:31;;;;;;;1.63;1.53;;;;;;;8.64;100.00;94780.53;5008813;28;104569;-66
2022/09/28 02:29:00;;;;;;;2.27;1.80;;;;;;;8.62;100.00;94779.25;5008130;28;104984;-67
2022/09/28 02:31:28;;;;;;;4.10;2.87;;;;;;;8.59;100.00;94767.34;5008836;28;101900;-66
2022/09/28 02:33:58;;;;;;;3.33;2.57;;;;;;;8.60;100.00;94749.56;5008963;28;102748;-66
2022/09/28 02:36:27;;;;;;;2.23;1.87;;;;;;;8.66;100.00;94746.59;5007430;28;105103;-67
2022/09/28 02:38:56;;;;;;;1.60;1.50;;;;;;;8.69;100.00;94742.59;5011245;28;101802;-66
2022/09/28 02:41:34;;;;;;;2.40;1.83;;;;;;;8.69;100.00;94735.47;5012102;28;104793;-67
2022/09/28 02:44:11;;;;;;;4.43;4.03;;;;;;;8.66;100.00;94732.56;5014935;28;106040;-66
2022/09/28 02:46:51;;;;;;;3.40;3.10;;;;;;;8.66;100.00;94724.59;5011919;28;104100;-66
2022/09/28 02:49:31;;;;;;;2.57;2.37;;;;;;;8.64;100.00;94716.97;5011103;28;105111;-67
2022/09/28 02:52:15;;;;;;;2.30;2.20;;;;;;;8.65;100.00;94712.44;5012015;28;101913;-66
2022/09/28 02:55:13;;;;;;;3.37;2.30;;;;;;;8.55;100.00;94702.72;5011588;28;103719;-66
2022/09/28 02:57:52;;;;;;;2.00;1.90;;;;;;;8.59;100.00;94706.41;5011194;28;105757;-66
2022/09/28 03:00:22;;;;;;;1.40;1.30;;;;;;;8.56;100.00;94692.94;5012009;28;101687;-67
2022/09/28 03:03:01;;;;;;;1.60;1.50;;;;;;;8.50;100.00;94694.03;5013342;28;102545;-67
2022/09/28 03:05:39;;;;;;;1.30;1.30;;;;;;;8.43;100.00;94693.56;5010955;28;105718;-66
2022/09/28 03:08:12;;;;;;;2.37;1.93;;;;;;;8.42;100.00;94691.97;5015462;28;102030;-67
2022/09/28 03:10:44;;;;;;;1.60;1.50;;;;;;;8.41;100.00;94680.56;5011171;28;105741;-67
2022/09/28 03:13:13;;;;;;;1.40;1.30;;;;;;;8.30;100.00;94663.19;5011443;28;101910;-66
2022/09/28 03:15:43;;;;;;;1.70;1.30;;;;;;;8.27;100.00;94661.13;5011403;28;105156;-67
2022/09/28 03:18:11;;;;;;;1.43;1.33;;;;;;;8.25;100.00;94654.50;5010831;28;105164;-66
2022/09/28 03:20:38;;;;;;;1.10;1.10;;;;;;;8.25;100.00;94654.50;5011558;28;102032;-66
2022/09/28 03:23:07;;;;;;;0.87;0.87;;;;;;;8.24;100.00;94661.66;5011523;28;105010;-66
2022/09/28 03:25:36;;;;;;;1.30;1.20;;;;;;;8.11;100.00;94656.16;5010665;28;105697;-66
2022/09/28 03:28:03;;;;;;;1.10;1.10;;;;;;;8.07;100.00;94652.53;5011411;28;101821;-66
2022/09/28 03:30:34;;;;;;;1.07;1.03;;;;;;;8.07;100.00;94644.59;5014284;28;105082;-66
2022/09/28 03:33:03;;;;;;;1.03;1.03;;;;;;;7.98;100.00;94638.28;5011330;28;101707;-66
2022/09/28 03:35:32;;;;;;;1.07;1.03;;;;;;;7.92;100.00;94640.16;5011095;28;105167;-66
2022/09/28 03:37:58;;;;;;;1.93;1.70;;;;;;;7.90;100.00;94625.66;5010676;28;104368;-66
2022/09/28 03:40:27;;;;;;;2.00;1.80;;;;;;;7.87;100.00;94627.00;5011083;28;101959;-66
2022/09/28 03:42:55;;;;;;;1.80;1.63;;;;;;;7.82;100.00;94623.59;5011170;28;103906;-66
2022/09/28 03:45:22;;;;;;;1.83;1.73;;;;;;;7.74;100.00;94616.25;5010295;28;105246;-66
2022/09/28 03:47:51;;;;;;;2.07;1.77;;;;;;;7.67;100.00;94618.38;5011072;28;101852;-66
2022/09/28 03:50:22;;;;;;;1.70;1.60;;;;;;;7.57;100.00;94615.81;5010221;28;105431;-66
2022/09/28 03:52:49;;;;;;;4.90;2.00;;;;;;;7.60;100.00;94612.63;5013910;28;105176;-66
2022/09/28 03:55:16;;;;;;;2.03;1.60;;;;;;;7.48;100.00;94598.97;5010432;28;104729;-66
2022/09/28 03:57:44;;;;;;;1.40;1.30;;;;;;;7.50;100.00;94600.25;5010083;28;105092;-66
2022/09/28 04:00:12;;;;;;;1.17;1.10;;;;;;;7.46;100.00;94583.34;5010935;28;101808;-66
2022/09/28 04:02:45;;;;;;;1.20;1.20;;;;;;;7.58;100.00;94580.38;5010867;28;104823;-66
2022/09/28 04:05:12;;;;;;;1.47;1.20;;;;;;;7.57;100.00;94578.78;5010246;28;104524;-66
2022/09/28 04:07:42;;;;;;;0.97;0.97;;;;;;;7.57;100.00;94565.56;5010776;28;101956;-66
2022/09/28 04:10:10;;;;;;;2.30;1.30;;;;;;;7.40;100.00;94565.16;5010805;28;103950;-66
2022/09/28 04:12:38;;;;;;;1.40;1.33;;;;;;;7.55;100.00;94565.06;5013326;28;104374;-66
2022/09/28 04:15:07;;;;;;;1.63;1.20;;;;;;;7.61;100.00;94558.66;5010720;28;104938;-66
2022/09/28 04:17:34;;;;;;;1.10;1.10;;;;;;;7.64;100.00;94555.47;5010040;28;105119;-66
2022/09/28 04:20:03;;;;;;;1.00;1.00;;;;;;;7.60;100.00;94555.25;5010675;28;102199;-66
2022/09/28 04:23:02;;;;;;;1.50;1.40;;;;;;;7.52;100.00;94558.47;5010471;28;104780;-66
2022/09/28 04:25:29;;;;;;;1.50;1.40;;;;;;;7.55;100.00;94560.56;5009823;28;105004;-66
2022/09/28 04:30:41;;;;;;;1.13;1.13;;;;;;;7.64;100.00;94558.88;5010383;28;103893;-66
2022/09/28 04:33:08;;;;;;;1.30;1.20;;;;;;;7.64;100.00;94566.06;5009933;28;105086;-66
2022/09/28 04:35:36;;;;;;;1.10;1.00;;;;;;;7.69;100.00;94572.09;5013478;28;101812;-66
2022/09/28 04:38:05;;;;;;;2.07;1.20;;;;;;;7.81;100.00;94579.69;5009771;28;105444;-66
2022/09/28 04:40:32;;;;;;;0.97;0.97;;;;;;;7.83;100.00;94580.19;5010370;28;101893;-66
2022/09/28 04:42:59;;;;;;;2.23;1.70;;;;;;;7.83;100.00;94578.34;5010375;28;104884;-66
2022/09/28 04:45:27;;;;;;;2.27;2.07;;;;;;;7.79;100.00;94587.13;5009731;28;105409;-66
2022/09/28 04:47:58;;;;;;;1.63;1.53;;;;;;;7.76;100.00;94582.34;5010455;28;101845;-66
2022/09/28 04:50:54;;;;;;;1.87;1.60;;;;;;;7.74;100.00;94584.50;5011995;28;102017;-66
2022/09/28 04:53:26;;;;;;;1.50;1.40;;;;;;;7.81;100.00;94577.03;5009663;28;105396;-66
2022/09/28 04:55:58;;;;;;;1.60;1.50;;;;;;;7.91;100.00;94559.19;5010316;28;101770;-66
2022/09/28 04:58:26;;;;;;;2.87;1.60;;;;;;;7.97;100.00;94542.22;5013121;28;103660;-66
2022/09/28 05:00:53;;;;;;;1.80;1.70;;;;;;;7.82;100.00;94607.72;5010316;28;101876;-66
2022/09/28 05:03:41;;;;;;;1.50;1.40;;;;;;;7.83;100.00;94596.06;5010471;28;103273;-67
2022/09/28 05:06:37;;;;;;;1.40;1.30;;;;;;;7.91;100.00;94606.06;5007933;28;102611;-64
2022/09/28 05:09:08;;;;;;;1.57;1.47;;;;;;;7.97;100.00;94581.13;5010218;28;101803;-64
2022/09/28 05:11:35;;;;;;;1.40;1.30;;;;;;;8.03;100.00;94566.78;5015669;28;104720;-64
2022/09/28 05:14:04;;;;;;;1.63;1.53;;;;;;;8.00;100.00;94604.38;5029338;28;104979;-64
2022/09/28 05:17:24;;;;;;;1.43;1.20;;;;;;;7.91;100.00;94614.78;5029887;28;101881;-64
2022/09/28 05:20:20;;;;;;;1.97;1.60;;;;;;;7.96;100.00;94619.25;5031038;28;102438;-64
2022/09/28 05:22:47;;;;;;;3.83;2.13;;;;;;;7.99;100.00;94611.56;5032639;28;104152;-64
2022/09/28 05:25:16;;;;;;;5.30;3.97;;;;;;;8.07;100.00;94605.66;5029859;28;103704;-64
2022/09/28 05:28:06;;;;;;;6.07;4.37;;;;;;;8.07;100.00;94607.53;5029212;28;105812;-64
2022/09/28 05:30:59;;;;;;;4.33;2.30;;;;;;;8.23;100.00;94595.75;5029745;28;101940;-64
2022/09/28 05:33:47;;;;;;;4.43;2.60;;;;;;;8.31;100.00;94597.78;5029797;28;104723;-64
2022/09/28 05:36:18;;;;;;;3.40;1.97;;;;;;;8.30;100.00;94581.09;5024816;28;105272;-64
2022/09/28 05:38:45;;;;;;;2.20;2.00;;;;;;;8.28;100.00;94587.78;5009551;28;101685;-64
2022/09/28 05:41:14;;;;;;;1.73;1.63;;;;;;;8.33;100.00;94582.41;5010805;28;102218;-64
2022/09/28 05:43:42;;;;;;;2.27;2.07;;;;;;;8.36;100.00;94571.28;5009213;28;105943;-64
2022/09/28 05:46:09;;;;;;;2.97;2.10;;;;;;;8.31;100.00;94579.25;5013841;28;102191;-64
2022/09/28 05:48:40;;;;;;;3.97;1.40;;;;;;;8.33;100.00;94577.91;5008559;28;105581;-64
2022/09/28 05:51:08;;;;;;;1.40;1.30;;;;;;;8.24;100.00;94576.16;5009402;28;101846;-64
2022/09/28 05:53:36;;;;;;;1.60;1.50;;;;;;;8.19;100.00;94561.06;5009170;28;105046;-64
2022/09/28 05:56:03;;;;;;;6.63;4.80;;;;;;;8.31;100.00;94558.06;5008269;28;105433;-64
2022/09/28 05:58:34;;;;;;;4.90;4.43;;;;;;;8.36;100.00;94560.69;5008912;28;102083;-64
2022/09/28 06:01:03;;;;;;;4.80;3.13;;;;;;;8.38;100.00;94558.53;5010131;28;101706;-64
2022/09/28 06:03:30;;;;;;;2.70;2.00;;;;;;;8.36;100.00;94560.69;5008483;28;105777;-64
2022/09/28 06:06:01;;;;;;;1.77;1.47;;;;;;;8.40;100.00;94561.69;5010041;28;102147;-64
2022/09/28 06:08:28;;;;;;;2.87;1.77;;;;;;;8.47;100.00;94554.19;5019177;28;104786;-64
2022/09/28 06:11:03;;;;;;;2.57;2.37;;;;;;;8.45;100.00;94556.34;5028890;28;101861;-64
2022/09/28 06:13:34;;;;;;;2.43;1.70;;;;;;;8.45;100.00;94556.34;5024689;27;103704;-64
2022/09/28 06:16:03;;;;;;;2.10;1.60;;;;;;;8.51;100.00;94552.56;5016020;28;103196;-64
2022/09/28 06:18:30;;;;;;;3.03;1.70;;;;;;;8.52;100.00;94539.06;5021236;28;102407;-64
2022/09/28 06:21:23;;;;;;;1.80;1.70;;;;;;;8.63;100.00;94532.56;5020165;28;102868;-64
2022/09/28 06:23:51;;;;;;;2.63;1.77;;;;;;;8.70;100.00;94516.31;5025363;28;105403;-64
2022/09/28 06:26:19;;;;;;;2.60;2.30;;;;;;;8.73;100.00;94526.34;5029279;28;102032;-64
2022/09/28 06:28:48;;;;;;;3.90;2.40;;;;;;;8.80;100.00;94527.59;5037696;28;105272;-64
2022/09/28 06:31:16;;;;;;;2.30;2.10;;;;;;;8.82;100.00;94533.38;5029906;28;101957;-64
2022/09/28 06:33:48;;;;;;;2.40;2.20;;;;;;;8.75;100.00;94540.91;5015643;28;105278;-65
2022/09/28 06:36:18;;;;;;;3.47;2.10;;;;;;;8.79;100.00;94547.19;5017847;28;105501;-64
2022/09/28 06:38:46;;;;;;;1.87;1.77;;;;;;;8.80;100.00;94546.16;5022831;28;102454;-64
2022/09/28 06:41:15;;;;;;;2.30;2.20;;;;;;;8.78;100.00;94552.81;5029233;28;103353;-65
2022/09/28 06:43:58;;;;;;;3.07;2.07;;;;;;;8.77;100.00;94567.13;5016202;28;105010;-65
2022/09/28 06:46:50;;;;;;;3.87;2.30;;;;;;;8.78;100.00;94579.31;4974726;28;101997;-65
2022/09/28 06:49:50;;;;;;;5.50;3.20;;;;;;;8.79;100.00;94586.19;4957979;28;104638;-64
2022/09/28 06:52:17;;;;;;;2.97;2.40;;;;;;;8.73;100.00;94584.66;4918455;28;102461;-64
2022/09/28 06:55:10;;;;;;;2.47;2.00;;;;;;;8.76;100.00;94589.38;4922395;28;102128;-64
2022/09/28 06:58:11;;;;;;;3.87;2.60;;;;;;;8.79;100.00;94584.28;4915039;28;105475;-65
2022/09/28 07:00:39;;;;;;;2.27;1.83;;;;;;;8.76;100.00;94592.81;4914351;28;102076;-64
2022/09/28 07:03:12;;;;;;;2.23;2.03;;;;;;;8.83;100.00;94587.19;4918593;28;104741;-65
2022/09/28 07:09:42;;;;;;;3.50;2.17;;;;;;;8.90;100.00;94577.03;4932872;28;103158;-64
2022/09/28 07:12:16;;;;;;;2.00;1.90;;;;;;;8.85;100.00;94567.28;4930307;28;102600;-64
2022/09/28 07:14:55;;;;;;;2.10;2.00;;;;;;;8.97;100.00;94561.56;4934404;28;103165;-65
2022/09/28 07:17:25;;;;;;;5.17;2.07;;;;;;;9.05;100.00;94568.91;4940242;28;101954;-64
2022/09/28 07:20:10;;;;;;;2.30;2.10;;;;;;;9.02;100.00;94580.06;4934650;28;104603;-65
2022/09/28 07:22:37;;;;;;;2.60;2.40;;;;;;;9.02;100.00;94572.91;4935906;28;102036;-65
2022/09/28 07:25:06;;;;;;;2.53;2.37;;;;;;;9.02;100.00;94577.41;4934571;28;104833;-64
2022/09/28 07:27:58;;;;;;;3.20;2.93;;;;;;;9.00;100.00;94583.00;4947853;28;102278;-64
2022/09/28 07:30:47;;;;;;;2.53;2.33;;;;;;;8.93;100.00;94581.75;5011033;28;101853;-64
2022/09/28 07:33:19;;;;;;;5.47;2.50;;;;;;;8.92;100.00;94580.97;5011706;28;104990;-64
2022/09/28 07:36:05;;;;;;;2.77;2.57;;;;;;;8.92;100.00;94591.59;5013528;28;105081;-64
2022/09/28 07:38:32;;;;;;;3.00;2.80;;;;;;;8.88;100.00;94598.50;5011464;28;103706;-65
2022/09/28 07:41:12;;;;;;;2.80;2.60;;;;;;;8.83;100.00;94605.75;5014175;28;104470;-63
2022/09/28 07:43:49;;;;;;;3.07;2.77;;;;;;;8.82;100.00;94618.19;5011407;28;101938;-65
2022/09/28 07:46:26;;;;;;;2.87;2.67;;;;;;;8.82;100.00;94625.34;5011286;28;105176;-64
2022/09/28 07:49:04;;;;;;;3.20;2.90;;;;;;;8.83;100.00;94621.66;5026629;28;105264;-64
2022/09/28 07:51:43;;;;;;;4.30;2.60;;;;;;;8.85;100.00;94628.25;5015792;28;101816;-64
2022/09/28 07:54:25;;;;;;;2.90;2.70;;;;;;;8.82;100.00;94623.50;5029403;27;102324;-63
2022/09/28 07:57:50;;;;;;;3.17;2.70;;;;;;;8.88;100.00;94618.94;5008886;28;102393;-66
2022/09/28 08:00:23;;;;;;;4.37;3.80;;;;;;;8.96;100.00;94623.59;5023591;28;102193;-67
2022/09/28 08:02:52;;;;;;;3.67;3.30;;;;;;;8.92;100.00;94626.03;5011233;28;105206;-65
2022/09/28 08:05:24;;;;;;;3.23;2.90;;;;;;;8.90;100.00;94630.81;5013859;28;105037;-66
2022/09/28 08:07:56;;;;;;;3.57;3.30;;;;;;;8.95;100.00;94629.97;5011115;28;104717;-65
2022/09/28 08:10:24;;;;;;;3.93;3.60;;;;;;;8.98;100.00;94632.06;5010323;28;105082;-65
2022/09/28 08:13:17;;;;;;;4.20;3.27;;;;;;;8.89;100.00;94631.13;5010968;28;101870;-65
2022/09/28 08:16:18;;;;;;;3.77;3.40;;;;;;;8.89;100.00;94629.25;5010931;28;105222;-65
2022/09/28 08:18:52;;;;;;;4.13;3.10;;;;;;;9.01;100.00;94620.91;5010366;28;105312;-65
2022/09/28 08:24:08;;;;;;;3.20;2.90;;;;;;;8.93;100.00;94614.34;5010708;28;103785;-65
2022/09/28 08:26:50;;;;;;;3.97;3.60;;;;;;;9.06;100.00;94613.66;5010211;28;104003;-65
2022/09/28 08:29:18;;;;;;;3.60;3.30;;;;;;;9.13;100.00;94605.38;5014261;28;101763;-65
2022/09/28 08:31:51;;;;;;;3.93;3.43;;;;;;;9.16;100.00;94607.47;5008313;28;102499;-65
2022/09/28 08:34:30;;;;;;;3.83;3.20;;;;;;;9.17;100.00;94607.16;5008986;28;101680;-66
2022/09/28 08:37:27;;;;;;;3.67;3.37;;;;;;;9.14;100.00;94620.19;5028552;27;101613;-66
2022/09/28 08:40:23;;;;;;;4.17;3.87;;;;;;;9.14;100.00;94615.69;5031404;28;102177;-66
2022/09/28 08:43:13;;;;;;;4.77;4.37;;;;;;;9.18;100.00;94621.22;5030342;28;101767;-66
2022/09/28 08:46:32;;;;;;;5.00;4.50;;;;;;;9.21;100.00;94624.09;5029020;28;102154;-67
2022/09/28 08:49:38;;;;;;;4.30;3.90;;;;;;;9.30;100.00;94624.25;5028532;28;102764;-65
2022/09/28 08:52:37;;;;;;;5.17;4.73;;;;;;;9.27;100.00;94628.25;5016954;28;102010;-65
2022/09/28 08:55:35;;;;;;;8.27;5.60;;;;;;;9.33;100.00;94621.03;5016678;28;105126;-64
2022/09/28 08:58:10;;;;;;;4.37;4.03;;;;;;;9.34;100.00;94622.63;5030342;28;101918;-64
2022/09/28 09:00:43;;;;;;;7.40;6.50;;;;;;;9.44;100.00;94633.88;5030522;28;105305;-64
2022/09/28 09:03:13;;;;;;;3.80;3.50;;;;;;;9.35;100.00;94629.50;5023911;28;105369;-65
2022/09/28 09:05:59;;;;;;;3.07;2.60;;;;;;;9.37;100.00;94640.63;5010271;28;101909;-65
2022/09/28 09:08:57;;;;;;;2.20;2.10;;;;;;;9.20;100.00;94643.72;5011112;28;103682;-64
2022/09/28 09:11:43;;;;;;;6.20;3.40;;;;;;;9.37;100.00;94635.31;5011038;28;105026;-64
2022/09/28 09:14:43;;;;;;;5.83;4.30;;;;;;;9.34;100.00;94620.75;5030336;28;101808;-65
2022/09/28 09:17:38;;;;;;;3.70;3.40;;;;;;;9.33;100.00;94613.09;5027574;28;104780;-65
2022/09/28 09:20:47;;;;;;;5.00;4.43;;;;;;;9.39;100.00;94627.84;5030541;28;102016;-65
2022/09/28 09:23:35;;;;;;;3.80;3.30;;;;;;;9.47;100.00;94638.63;5010233;28;105329;-65
2022/09/28 09:30:03;;;;;;;2.43;2.20;;;;;;;9.47;100.00;94638.63;5022773;28;101733;-65
2022/09/28 09:32:52;;;;;;;3.07;2.77;;;;;;;9.53;100.00;94634.81;5029090;28;105466;-67
2022/09/28 09:35:32;;;;;;;3.50;3.20;;;;;;;9.60;100.00;94658.34;5018744;28;104897;-66
2022/09/28 09:38:40;;;;;;;4.20;3.80;;;;;;;9.82;100.00;94647.97;5003242;28;102142;-66
2022/09/28 09:41:37;;;;;;;3.30;2.50;;;;;;;9.85;100.00;94628.78;5011250;28;101998;-67
2022/09/28 09:44:42;;;;;;;3.93;2.33;;;;;;;10.06;100.00;94624.78;5024572;28;102335;-66
2022/09/28 09:47:53;;;;;;;2.23;2.03;;;;;;;10.20;100.00;94628.28;5029913;27;104055;-66
2022/09/28 09:50:39;;;;;;;2.50;1.87;;;;;;;10.21;100.00;94621.91;5029015;28;105219;-66
2022/09/28 09:53:18;;;;;;;2.27;1.73;;;;;;;10.28;100.00;94619.66;5029682;28;101958;-64
2022/09/28 09:55:56;;;;;;;2.33;1.80;;;;;;;10.41;100.00;94624.22;5026627;28;104687;-64
2022/09/28 09:58:35;;;;;;;2.23;1.90;;;;;;;10.69;100.00;94625.84;5008582;28;105729;-65
2022/09/28 10:01:37;;;;;;;2.30;2.10;;;;;;;10.58;100.00;94619.16;5009850;28;103103;-64
2022/09/28 10:04:32;;;;;;;1.80;1.60;;;;;;;10.59;100.00;94615.41;5009300;28;105224;-64
2022/09/28 10:07:09;;;;;;;2.40;2.00;;;;;;;10.50;100.00;94609.19;5019357;28;105291;-64
2022/09/28 10:09:41;;;;;;;4.40;2.03;;;;;;;10.67;100.00;94618.16;5032914;28;101840;-64
2022/09/28 10:12:24;;;;;;;3.97;2.10;;;;;;;10.93;100.00;94613.97;5014829;28;106008;-64
2022/09/28 10:14:52;;;;;;;2.27;2.07;;;;;;;11.27;100.00;94616.22;5009864;28;101959;-64
2022/09/28 10:17:25;;;;;;;2.10;1.90;;;;;;;11.20;100.00;94626.47;5008330;28;105724;-64
2022/09/28 10:20:24;;;;;;;1.90;1.80;;;;;;;10.98;100.00;94618.41;5032361;27;102484;-64
2022/09/28 10:23:02;;;;;;;3.57;2.30;;;;;;;11.07;100.00;94616.63;5026804;28;101859;-64
2022/09/28 10:25:32;;;;;;;2.23;2.03;;;;;;;11.16;100.00;94634.25;5028113;28;104802;-64
2022/09/28 10:28:01;;;;;;;1.70;1.60;;;;;;;11.13;100.00;94634.06;5024719;28;105716;-64
2022/09/28 10:30:27;;;;;;;1.83;1.73;;;;;;;11.08;100.00;94640.28;5008351;28;102217;-64
2022/09/28 10:32:58;;;;;;;1.90;1.70;;;;;;;11.12;100.00;94641.25;5011097;28;104872;-64
2022/09/28 10:35:39;;;;;;;1.63;1.47;;;;;;;11.26;100.00;94628.75;5021892;28;101802;-64
2022/09/28 10:38:13;;;;;;;1.47;1.37;;;;;;;11.44;100.00;94645.69;5025224;28;104633;-64
2022/09/28 10:40:45;;;;;;;2.20;1.60;;;;;;;11.37;100.00;94642.63;5005873;28;102367;-64
2022/09/28 10:43:22;;;;;;;1.63;1.53;;;;;;;11.41;100.00;94648.94;5008605;28;101887;-64
2022/09/28 10:46:01;;;;;;;1.20;1.10;;;;;;;11.44;100.00;94645.69;5008578;28;105290;-65
2022/09/28 10:48:30;;;;;;;1.30;1.20;;;;;;;11.61;100.00;94645.88;5007915;28;105717;-64
2022/09/28 10:51:03;;;;;;;1.60;1.50;;;;;;;11.59;100.00;94640.06;5008584;28;101889;-64
2022/09/28 10:53:30;;;;;;;2.03;1.40;;;;;;;11.57;100.00;94651.00;5008639;28;104708;-65
2022/09/28 10:56:28;;;;;;;1.50;1.23;;;;;;;11.64;100.00;94639.94;5016571;28;101876;-64
2022/09/28 10:59:23;;;;;;;2.00;1.40;;;;;;;11.74;100.00;94653.06;5029985;27;105390;-64
2022/09/28 11:01:54;;;;;;;1.50;1.40;;;;;;;11.76;100.00;94656.19;5031658;28;105642;-64
2022/09/28 11:04:24;;;;;;;1.30;1.20;;;;;;;11.86;100.00;94661.31;5033749;27;102012;-64
2022/09/28 11:07:06;;;;;;;1.70;1.60;;;;;;;11.98;100.00;94662.38;5030013;28;104169;-65
2022/09/28 11:09:35;;;;;;;3.27;1.70;;;;;;;12.12;100.00;94670.31;5011398;28;105751;-64
2022/09/28 11:12:14;;;;;;;1.80;1.50;;;;;;;12.19;100.00;94665.34;5020919;28;101855;-64
2022/09/28 11:14:45;;;;;;;1.70;1.60;;;;;;;12.22;100.00;94654.88;5013293;28;104878;-65
2022/09/28 11:17:57;;;;;;;1.37;1.27;;;;;;;12.22;100.00;94659.44;5032949;28;104647;-64
2022/09/28 11:21:07;;;;;;;1.53;1.43;;;;;;;12.57;100.00;94656.72;5031661;28;105074;-64
2022/09/28 11:23:35;;;;;;;1.00;1.00;;;;;;;12.75;100.00;94658.38;5030851;28;105482;-64
2022/09/28 11:26:19;;;;;;;1.20;1.10;;;;;;;12.81;100.00;94651.81;5022556;28;101940;-64
2022/09/28 11:28:51;;;;;;;2.77;1.10;;;;;;;12.85;100.00;94658.13;5011677;28;105282;-65
2022/09/28 11:31:27;;;;;;;1.17;0.90;;;;;;;12.72;100.00;94655.53;5009827;28;105137;-64
2022/09/28 11:34:16;;;;;;;1.60;0.80;;;;;;;12.60;100.00;94660.66;5021392;28;101910;-65
2022/09/28 11:37:22;;;;;;;0.60;0.60;;;;;;;12.66;100.00;94664.75;5028314;27;103333;-65
2022/09/28 11:40:03;;;;;;;0.63;0.50;;;;;;;12.76;100.00;94664.50;5030024;28;105033;-65
2022/09/28 11:42:38;;;;;;;0.60;0.60;;;;;;;12.16;100.00;94679.28;5013956;28;101764;-65
2022/09/28 11:45:20;;;;;;;0.50;0.50;;;;;;;11.92;100.00;94687.53;5028865;28;105572;-65
2022/09/28 11:47:54;;;;;;;1.60;1.20;;;;;;;11.53;100.00;94691.78;5029889;28;102461;-65
2022/09/28 11:50:28;;;;;;;0.70;0.70;;;;;;;11.23;100.00;94679.09;5013547;28;105135;-65
2022/09/28 11:53:01;;;;;;;0.60;0.60;;;;;;;11.20;100.00;94685.81;5028457;28;105939;-65
2022/09/28 11:55:35;;;;;;;0.40;0.40;;;;;;;11.06;100.00;94684.97;5011615;28;102989;-65
2022/09/28 11:58:10;;;;;;;0.40;0.40;;;;;;;10.85;100.00;94691.75;5011311;28;104931;-65
2022/09/28 12:00:45;;;;;;;0.53;0.50;;;;;;;11.12;100.00;94704.31;5009792;28;105604;-65
2022/09/28 12:03:18;;;;;;;0.30;0.30;;;;;;;10.85;100.00;94698.94;5019724;28;102164;-64
2022/09/28 12:05:51;;;;;;;0.40;0.40;;;;;;;10.87;100.00;94702.09;5013222;28;104993;-65
2022/09/28 12:08:26;;;;;;;0.70;0.70;;;;;;;11.03;100.00;94706.06;5028131;28;101937;-65
2022/09/28 12:11:12;;;;;;;0.47;0.47;;;;;;;11.20;100.00;94698.31;5022496;27;102336;-65
2022/09/28 12:14:02;;;;;;;1.43;0.50;;;;;;;11.11;100.00;94703.50;5016591;28;102283;-65
2022/09/28 12:16:35;;;;;;;0.80;0.77;;;;;;;11.05;100.00;94695.91;5018632;28;101944;-65
2022/09/28 12:19:05;;;;;;;0.60;0.60;;;;;;;10.91;100.00;94695.88;5020656;28;104777;-65
2022/09/28 12:21:38;;;;;;;0.50;0.50;;;;;;;10.92;100.00;94692.19;5020821;28;102744;-65